Time;durP1;ratioP1;P1;durP2;ratioP2;P2;SDS_P1;SDS_P2;PMS_P1;PMS_P2;Temp;Humidity;BMP_temperature;BMP_pressure;BME280_temperature;BME280_humidity;BME280_pressure;Samples;Min_cycle;Max_cycle;Signal;HPM_P1;HPM_P2
2021/10/29 00:00:54;;;;;;;;;;;19.30;64.30;;;;;;4263749;27;19919;-70
2021/10/29 00:02:57;;;;;;;;;;;19.30;64.30;;;;;;4257392;27;20485;-70
2021/10/29 00:05:00;;;;;;;;;;;19.30;64.40;;;;;;4257397;27;19944;-69
2021/10/29 00:07:03;;;;;;;;;;;19.30;64.40;;;;;;4262902;27;19919;-71
2021/10/29 00:09:05;;;;;;;;;;;19.30;64.30;;;;;;4259344;27;19919;-70
2021/10/29 00:11:08;;;;;;;;;;;19.30;64.40;;;;;;4263489;27;19927;-71
2021/10/29 00:13:12;;;;;;;;;;;19.30;64.30;;;;;;4261153;27;19923;-72
2021/10/29 00:15:15;;;;;;;;;;;19.30;64.40;;;;;;4259125;27;19919;-73
2021/10/29 00:17:18;;;;;;;;;;;19.30;64.40;;;;;;4263964;27;19922;-73
2021/10/29 00:19:20;;;;;;;;;;;19.30;64.40;;;;;;4259632;27;19919;-71
2021/10/29 00:21:23;;;;;;;;;;;19.30;64.40;;;;;;4263475;27;20431;-71
2021/10/29 00:23:27;;;;;;;;;;;19.30;64.40;;;;;;4259240;27;19965;-73
2021/10/29 00:25:30;;;;;;;;;;;19.30;64.40;;;;;;4255600;27;20324;-71
2021/10/29 00:27:33;;;;;;;;;;;19.30;64.40;;;;;;4231651;28;19919;-71
2021/10/29 00:29:37;;;;;;;;;;;19.30;64.40;;;;;;4262028;27;20321;-67
2021/10/29 00:31:40;;;;;;;;;;;19.30;64.40;;;;;;4255498;27;19920;-70
2021/10/29 00:33:42;;;;;;;;;;;19.30;64.50;;;;;;4253574;27;20436;-69
2021/10/29 00:35:45;;;;;;;;;;;19.20;64.40;;;;;;4258520;27;19972;-71
2021/10/29 00:37:48;;;;;;;;;;;19.30;64.50;;;;;;4249686;27;19923;-70
2021/10/29 00:39:50;;;;;;;;;;;19.20;64.50;;;;;;4261944;27;20355;-68
2021/10/29 00:41:53;;;;;;;;;;;19.30;64.60;;;;;;4250358;27;19919;-67
2021/10/29 00:43:56;;;;;;;;;;;19.20;64.50;;;;;;4252417;27;19919;-71
2021/10/29 00:46:00;;;;;;;;;;;19.20;64.50;;;;;;4241126;27;19924;-67
2021/10/29 00:48:03;;;;;;;;;;;19.20;64.50;;;;;;4249684;27;19979;-70
2021/10/29 00:50:06;;;;;;;;;;;19.20;64.50;;;;;;4260788;27;19972;-70
2021/10/29 00:52:09;;;;;;;;;;;19.20;64.60;;;;;;4232689;27;19923;-69
2021/10/29 00:54:12;;;;;;;;;;;19.20;64.50;;;;;;4251500;27;19965;-69
2021/10/29 00:56:14;;;;;;;;;;;19.20;64.60;;;;;;4259863;27;19964;-68
2021/10/29 00:58:17;;;;;;;;;;;19.20;64.40;;;;;;4249626;27;19964;-70
2021/10/29 01:00:20;;;;;;;;;;;19.20;64.60;;;;;;4259546;27;20319;-68
2021/10/29 01:02:25;;;;;;;;;;;19.20;64.60;;;;;;4251815;27;19945;-73
2021/10/29 01:04:27;;;;;;;;;;;19.20;64.70;;;;;;4254075;27;20352;-70
2021/10/29 01:06:30;;;;;;;;;;;19.20;64.60;;;;;;4255346;27;19919;-70
2021/10/29 01:08:35;;;;;;;;;;;19.20;64.60;;;;;;4248318;27;19927;-70
2021/10/29 01:10:37;;;;;;;;;;;19.20;64.60;;;;;;4256249;27;19964;-72
2021/10/29 01:12:40;;;;;;;;;;;19.20;64.70;;;;;;4263694;27;20324;-69
2021/10/29 01:14:43;;;;;;;;;;;19.20;64.60;;;;;;4262324;27;20319;-65
2021/10/29 01:16:45;;;;;;;;;;;19.20;64.60;;;;;;4265696;27;19941;-70
2021/10/29 01:18:49;;;;;;;;;;;19.20;64.60;;;;;;4266296;27;19945;-71
2021/10/29 01:20:53;;;;;;;;;;;19.20;64.70;;;;;;4252130;27;19978;-71
2021/10/29 01:22:57;;;;;;;;;;;19.10;64.70;;;;;;4249256;27;19919;-71
2021/10/29 01:24:59;;;;;;;;;;;19.10;64.60;;;;;;4250408;27;19975;-72
2021/10/29 01:27:08;;;;;;;;;;;19.20;64.80;;;;;;4242094;27;19934;-70
2021/10/29 01:29:10;;;;;;;;;;;19.10;64.70;;;;;;4248998;27;19919;-70
2021/10/29 01:31:14;;;;;;;;;;;19.10;64.70;;;;;;4250312;27;19919;-70
2021/10/29 01:33:16;;;;;;;;;;;19.10;64.70;;;;;;4262158;27;20387;-70
2021/10/29 01:35:19;;;;;;;;;;;19.10;64.70;;;;;;4264305;27;20054;-63
2021/10/29 01:37:23;;;;;;;;;;;19.10;64.70;;;;;;4258414;27;19942;-67
2021/10/29 01:39:26;;;;;;;;;;;19.10;64.70;;;;;;4265716;27;19971;-66
2021/10/29 01:41:28;;;;;;;;;;;19.10;64.80;;;;;;4257130;27;20435;-65
2021/10/29 01:43:37;;;;;;;;;;;19.10;64.70;;;;;;4261705;27;19972;-65
2021/10/29 01:45:39;;;;;;;;;;;19.10;64.70;;;;;;4264292;27;19920;-65
2021/10/29 01:47:42;;;;;;;;;;;19.10;64.70;;;;;;4254376;27;20362;-73
2021/10/29 01:49:45;;;;;;;;;;;19.10;64.80;;;;;;4266115;27;19971;-69
2021/10/29 01:51:48;;;;;;;;;;;19.10;64.80;;;;;;4257750;27;19919;-65
2021/10/29 01:53:52;;;;;;;;;;;19.10;64.70;;;;;;4261338;27;19922;-68
2021/10/29 01:55:54;;;;;;;;;;;19.10;64.80;;;;;;4264047;27;19931;-64
2021/10/29 01:57:57;;;;;;;;;;;19.10;64.80;;;;;;4254101;27;20287;-72
2021/10/29 02:00:00;;;;;;;;;;;19.10;64.90;;;;;;4265658;27;19923;-65
2021/10/29 02:02:03;;;;;;;;;;;19.10;64.90;;;;;;4257947;27;20431;-62
2021/10/29 02:04:05;;;;;;;;;;;19.00;64.80;;;;;;4259994;27;19964;-62
2021/10/29 02:06:08;;;;;;;;;;;19.00;64.80;;;;;;4263818;27;19919;-65
2021/10/29 02:08:11;;;;;;;;;;;19.00;64.90;;;;;;4235574;27;19989;-62
2021/10/29 02:10:15;;;;;;;;;;;19.10;64.90;;;;;;4265343;27;19919;-66
2021/10/29 02:12:17;;;;;;;;;;;19.00;64.90;;;;;;4258352;27;19923;-66
2021/10/29 02:14:21;;;;;;;;;;;19.00;64.90;;;;;;4260840;27;19942;-67
2021/10/29 02:16:23;;;;;;;;;;;19.00;64.90;;;;;;4257049;27;19928;-72
2021/10/29 02:18:26;;;;;;;;;;;19.00;64.90;;;;;;4259441;27;19919;-63
2021/10/29 02:20:31;;;;;;;;;;;19.00;64.80;;;;;;4253174;27;19919;-69
2021/10/29 02:22:34;;;;;;;;;;;19.00;64.90;;;;;;4255953;27;20349;-70
2021/10/29 02:24:36;;;;;;;;;;;19.00;65.00;;;;;;4240093;27;19919;-64
2021/10/29 02:26:40;;;;;;;;;;;19.00;64.90;;;;;;4264598;27;19919;-70
2021/10/29 02:28:43;;;;;;;;;;;19.00;64.80;;;;;;4253167;27;19944;-62
2021/10/29 02:30:46;;;;;;;;;;;19.00;64.80;;;;;;4257877;27;19919;-65
2021/10/29 02:32:49;;;;;;;;;;;19.00;64.90;;;;;;4260390;27;19939;-63
2021/10/29 02:34:52;;;;;;;;;;;19.00;64.90;;;;;;4255046;27;19927;-67
2021/10/29 02:36:54;;;;;;;;;;;19.00;64.90;;;;;;4252490;27;20260;-65
2021/10/29 02:38:57;;;;;;;;;;;19.00;64.90;;;;;;4252361;27;19920;-66
2021/10/29 02:41:01;;;;;;;;;;;19.00;64.90;;;;;;4265259;27;19923;-68
2021/10/29 02:43:05;;;;;;;;;;;18.90;64.90;;;;;;4260539;27;20367;-69
2021/10/29 02:45:08;;;;;;;;;;;18.90;65.00;;;;;;4256556;27;20367;-62
2021/10/29 02:47:11;;;;;;;;;;;18.90;64.90;;;;;;4264773;27;19944;-64
2021/10/29 02:49:13;;;;;;;;;;;18.90;64.90;;;;;;4251248;27;19971;-64
2021/10/29 02:51:17;;;;;;;;;;;18.90;64.90;;;;;;4247712;27;19944;-62
2021/10/29 02:53:19;;;;;;;;;;;19.00;65.10;;;;;;4250922;27;19930;-63
2021/10/29 02:55:22;;;;;;;;;;;18.90;64.90;;;;;;4256520;27;20292;-61
2021/10/29 02:57:25;;;;;;;;;;;18.90;65.00;;;;;;4247501;27;19972;-63
2021/10/29 02:59:29;;;;;;;;;;;18.90;64.80;;;;;;4259160;27;19940;-64
2021/10/29 03:01:31;;;;;;;;;;;19.00;65.00;;;;;;4247931;27;19919;-67
2021/10/29 03:03:35;;;;;;;;;;;18.90;64.90;;;;;;4249633;27;20359;-67
2021/10/29 03:05:39;;;;;;;;;;;18.90;65.00;;;;;;4257115;27;19972;-63
2021/10/29 03:07:41;;;;;;;;;;;18.90;64.90;;;;;;4247451;27;20333;-67
2021/10/29 03:09:44;;;;;;;;;;;18.90;64.90;;;;;;4258490;27;19964;-62
2021/10/29 03:11:47;;;;;;;;;;;18.90;65.00;;;;;;4248767;27;19919;-70
2021/10/29 03:13:50;;;;;;;;;;;18.90;65.00;;;;;;4252658;27;19976;-69
2021/10/29 03:15:54;;;;;;;;;;;18.90;65.00;;;;;;4247181;27;20480;-67
2021/10/29 03:17:57;;;;;;;;;;;18.90;65.00;;;;;;4247136;27;19930;-63
2021/10/29 03:19:59;;;;;;;;;;;18.90;64.80;;;;;;4259024;27;19967;-62
2021/10/29 03:22:02;;;;;;;;;;;18.90;64.80;;;;;;4264121;27;19922;-61
2021/10/29 03:24:05;;;;;;;;;;;18.90;64.90;;;;;;4244165;27;19920;-69
2021/10/29 03:26:07;;;;;;;;;;;18.90;65.00;;;;;;4253081;27;20355;-68
2021/10/29 03:28:10;;;;;;;;;;;18.90;64.90;;;;;;4246093;27;20516;-67
2021/10/29 03:30:12;;;;;;;;;;;18.90;65.00;;;;;;4254567;27;19923;-63
2021/10/29 03:32:22;;;;;;;;;;;18.90;65.00;;;;;;4263214;27;19975;-69
2021/10/29 03:34:25;;;;;;;;;;;18.90;65.00;;;;;;4262469;27;19918;-69
2021/10/29 03:36:27;;;;;;;;;;;18.90;64.90;;;;;;4252547;27;19919;-64
2021/10/29 03:38:48;;;;;;;;;;;18.90;64.80;;;;;;4264199;27;20566;-70
2021/10/29 03:41:01;;;;;;;;;;;18.90;64.90;;;;;;4251681;27;20349;-62
2021/10/29 03:43:18;;;;;;;;;;;18.80;65.00;;;;;;4246982;27;19920;-65
2021/10/29 03:45:21;;;;;;;;;;;18.90;64.90;;;;;;4253046;27;20457;-63
2021/10/29 03:47:29;;;;;;;;;;;18.80;65.00;;;;;;4253220;27;19919;-70
2021/10/29 03:49:40;;;;;;;;;;;18.80;64.90;;;;;;4248060;27;20428;-71
2021/10/29 03:51:48;;;;;;;;;;;18.80;64.80;;;;;;4258279;27;20394;-63
2021/10/29 03:53:56;;;;;;;;;;;18.80;64.80;;;;;;4246588;27;20459;-70
2021/10/29 03:56:00;;;;;;;;;;;18.80;65.00;;;;;;4255128;27;19975;-62
2021/10/29 03:58:03;;;;;;;;;;;18.80;64.90;;;;;;4250592;27;20309;-67
2021/10/29 04:00:06;;;;;;;;;;;18.80;64.90;;;;;;4247127;27;19940;-63
2021/10/29 04:02:12;;;;;;;;;;;18.80;64.90;;;;;;4257759;27;19980;-65
2021/10/29 04:04:16;;;;;;;;;;;18.80;64.90;;;;;;4246812;27;19923;-63
2021/10/29 04:06:19;;;;;;;;;;;18.80;64.90;;;;;;4254954;27;19923;-66
2021/10/29 04:08:21;;;;;;;;;;;18.80;64.90;;;;;;4250510;27;19923;-69
2021/10/29 04:10:26;;;;;;;;;;;18.80;64.80;;;;;;4247778;27;19923;-63
2021/10/29 04:12:29;;;;;;;;;;;18.80;64.80;;;;;;4258461;27;19926;-67
2021/10/29 04:14:32;;;;;;;;;;;18.80;64.90;;;;;;4252648;27;19927;-62
2021/10/29 04:16:38;;;;;;;;;;;18.80;64.90;;;;;;4254337;27;20328;-67
2021/10/29 04:18:41;;;;;;;;;;;18.80;64.90;;;;;;4245537;27;19923;-62
2021/10/29 04:20:45;;;;;;;;;;;18.80;64.80;;;;;;4253956;27;19927;-63
2021/10/29 04:22:48;;;;;;;;;;;18.80;64.80;;;;;;4257795;27;19920;-68
2021/10/29 04:24:50;;;;;;;;;;;18.80;64.90;;;;;;4228419;28;19924;-65
2021/10/29 04:26:53;;;;;;;;;;;18.80;64.90;;;;;;4253423;27;19931;-69
2021/10/29 04:28:56;;;;;;;;;;;18.80;64.90;;;;;;4251250;27;19952;-64
2021/10/29 04:31:01;;;;;;;;;;;18.70;64.90;;;;;;4249800;27;20414;-65
2021/10/29 04:33:07;;;;;;;;;;;18.80;65.10;;;;;;4257718;27;20363;-62
2021/10/29 04:35:11;;;;;;;;;;;18.80;65.00;;;;;;4246116;28;19923;-64
2021/10/29 04:37:15;;;;;;;;;;;18.70;64.90;;;;;;4254935;27;19919;-65
2021/10/29 04:39:18;;;;;;;;;;;18.70;65.00;;;;;;4249841;27;19920;-64
2021/10/29 04:41:20;;;;;;;;;;;18.70;64.90;;;;;;4247377;27;19964;-66
2021/10/29 04:43:23;;;;;;;;;;;18.70;65.00;;;;;;4257455;27;19968;-71
2021/10/29 04:45:25;;;;;;;;;;;18.70;64.90;;;;;;4246394;28;19972;-70
2021/10/29 04:47:28;;;;;;;;;;;18.70;65.50;;;;;;4252699;27;19964;-70
2021/10/29 04:49:31;;;;;;;;;;;18.70;64.90;;;;;;4251896;27;19924;-70
2021/10/29 04:51:34;;;;;;;;;;;18.70;64.90;;;;;;4247487;27;19923;-70
2021/10/29 04:53:38;;;;;;;;;;;18.70;64.90;;;;;;4257787;27;20313;-66
2021/10/29 04:55:41;;;;;;;;;;;18.70;64.80;;;;;;4246054;28;20271;-70
2021/10/29 04:57:43;;;;;;;;;;;18.70;65.00;;;;;;4252050;27;19964;-66
2021/10/29 04:59:46;;;;;;;;;;;18.70;64.90;;;;;;4252946;27;20567;-64
2021/10/29 05:01:49;;;;;;;;;;;18.70;64.90;;;;;;4247036;27;19926;-68
2021/10/29 05:03:51;;;;;;;;;;;18.70;65.00;;;;;;4258546;27;20430;-72
2021/10/29 05:05:54;;;;;;;;;;;18.70;64.90;;;;;;4246459;28;20437;-66
2021/10/29 05:07:57;;;;;;;;;;;18.70;64.90;;;;;;4247443;27;19927;-70
2021/10/29 05:10:01;;;;;;;;;;;18.70;64.90;;;;;;4256304;27;19968;-65
2021/10/29 05:12:04;;;;;;;;;;;18.70;64.80;;;;;;4266027;27;19919;-72
2021/10/29 05:14:06;;;;;;;;;;;18.70;65.00;;;;;;4259298;27;19964;-63
2021/10/29 05:16:09;;;;;;;;;;;18.60;64.90;;;;;;4266279;27;19919;-65
2021/10/29 05:18:17;;;;;;;;;;;18.70;64.90;;;;;;4262071;27;20007;-64
2021/10/29 05:20:20;;;;;;;;;;;18.70;64.90;;;;;;4264805;27;20401;-70
2021/10/29 05:22:23;;;;;;;;;;;18.60;64.90;;;;;;4266575;27;19919;-71
2021/10/29 05:24:25;;;;;;;;;;;18.70;64.90;;;;;;4261825;27;19964;-64
2021/10/29 05:26:29;;;;;;;;;;;18.60;64.80;;;;;;4248807;27;20524;-69
2021/10/29 05:28:32;;;;;;;;;;;18.60;64.90;;;;;;4253029;27;20395;-65
2021/10/29 05:30:35;;;;;;;;;;;18.70;65.00;;;;;;4263825;27;19923;-67
2021/10/29 05:32:38;;;;;;;;;;;18.60;65.00;;;;;;4248587;27;19942;-62
2021/10/29 05:34:41;;;;;;;;;;;18.60;64.90;;;;;;4260767;27;20410;-62
2021/10/29 05:36:43;;;;;;;;;;;18.60;64.90;;;;;;4248836;27;20363;-64
2021/10/29 05:38:46;;;;;;;;;;;18.70;65.00;;;;;;4251828;27;19951;-65
2021/10/29 05:40:49;;;;;;;;;;;18.60;65.00;;;;;;4258176;27;19919;-70
2021/10/29 05:42:53;;;;;;;;;;;18.60;65.00;;;;;;4248684;27;20561;-61
2021/10/29 05:44:56;;;;;;;;;;;18.60;65.00;;;;;;4259710;27;19979;-69
2021/10/29 05:46:58;;;;;;;;;;;18.60;64.90;;;;;;4249709;27;20321;-73
2021/10/29 05:49:01;;;;;;;;;;;18.60;65.00;;;;;;4250854;27;19964;-65
2021/10/29 05:51:09;;;;;;;;;;;18.60;64.90;;;;;;4241054;27;20333;-65
2021/10/29 05:53:19;;;;;;;;;;;18.60;65.00;;;;;;4248568;27;19919;-61
2021/10/29 05:55:21;;;;;;;;;;;18.60;65.00;;;;;;4242545;27;19941;-63
2021/10/29 05:57:24;;;;;;;;;;;18.60;65.00;;;;;;4248628;27;19926;-69
2021/10/29 05:59:29;;;;;;;;;;;18.60;65.00;;;;;;4251159;27;20359;-69
2021/10/29 06:01:32;;;;;;;;;;;18.60;65.00;;;;;;4257698;27;19919;-69
2021/10/29 06:03:35;;;;;;;;;;;18.60;65.00;;;;;;4248262;27;20295;-63
2021/10/29 06:05:38;;;;;;;;;;;18.60;65.00;;;;;;4259614;27;20321;-67
2021/10/29 06:07:42;;;;;;;;;;;18.60;65.00;;;;;;4249140;27;19919;-68
2021/10/29 06:09:45;;;;;;;;;;;18.60;65.00;;;;;;4250765;27;19923;-67
2021/10/29 06:11:48;;;;;;;;;;;18.60;65.00;;;;;;4258137;27;19920;-63
2021/10/29 06:13:50;;;;;;;;;;;18.60;65.00;;;;;;4253761;27;19972;-65
2021/10/29 06:15:54;;;;;;;;;;;18.60;65.10;;;;;;4258865;27;19919;-64
2021/10/29 06:17:58;;;;;;;;;;;18.60;65.10;;;;;;4265266;27;19919;-67
2021/10/29 06:20:01;;;;;;;;;;;18.60;65.10;;;;;;4262928;27;19919;-70
2021/10/29 06:22:21;;;;;;;;;;;18.60;65.10;;;;;;4258655;27;19972;-62
2021/10/29 06:24:25;;;;;;;;;;;18.50;65.00;;;;;;4247929;27;19919;-72
2021/10/29 06:26:38;;;;;;;;;;;18.60;65.10;;;;;;4252241;27;19945;-67
2021/10/29 06:28:41;;;;;;;;;;;18.50;65.10;;;;;;4248006;27;19923;-69
2021/10/29 06:30:45;;;;;;;;;;;18.50;65.10;;;;;;4255331;27;19980;-70
2021/10/29 06:32:49;;;;;;;;;;;18.50;65.00;;;;;;4264765;27;19919;-66
2021/10/29 06:34:52;;;;;;;;;;;18.50;65.10;;;;;;4264758;27;19971;-65
2021/10/29 06:36:54;;;;;;;;;;;18.50;65.00;;;;;;4256398;27;19923;-66
2021/10/29 06:38:59;;;;;;;;;;;18.50;65.00;;;;;;4265246;27;19971;-68
2021/10/29 06:41:01;;;;;;;;;;;18.50;65.10;;;;;;4260072;27;19923;-65
2021/10/29 06:43:08;;;;;;;;;;;18.50;65.10;;;;;;4256635;27;19980;-70
2021/10/29 06:47:43;;;;;;;;;;;18.50;65.00;;;;;;4253382;27;19977;-65
2021/10/29 07:41:10;;;;;;;;;;;18.50;65.10;;;;;;4246850;27;20408;-69
2021/10/29 07:43:16;;;;;;;;;;;18.50;65.10;;;;;;4252473;27;19919;-65
2021/10/29 07:45:20;;;;;;;;;;;18.50;65.10;;;;;;4253015;27;20334;-70
2021/10/29 07:47:22;;;;;;;;;;;18.50;65.20;;;;;;4247490;27;19972;-67
2021/10/29 07:49:28;;;;;;;;;;;18.50;65.10;;;;;;4240103;27;19920;-69
2021/10/29 07:51:31;;;;;;;;;;;18.50;65.10;;;;;;4246975;27;19993;-70
2021/10/29 07:53:35;;;;;;;;;;;18.50;65.10;;;;;;4252566;27;19944;-71
2021/10/29 07:55:40;;;;;;;;;;;18.50;65.10;;;;;;4235129;27;19927;-62
2021/10/29 07:57:46;;;;;;;;;;;18.50;65.10;;;;;;4247784;27;19919;-70
2021/10/29 07:59:50;;;;;;;;;;;18.50;65.10;;;;;;4258196;27;20335;-69
2021/10/29 08:01:52;;;;;;;;;;;18.50;65.10;;;;;;4246491;27;19964;-69
2021/10/29 08:03:55;;;;;;;;;;;18.50;65.10;;;;;;4252304;27;19979;-67
2021/10/29 08:05:58;;;;;;;;;;;18.50;65.10;;;;;;4253301;27;19972;-65
2021/10/29 08:08:02;;;;;;;;;;;18.50;65.70;;;;;;4247227;27;20401;-62
2021/10/29 08:10:06;;;;;;;;;;;18.50;65.10;;;;;;4258412;27;19922;-75
2021/10/29 08:12:11;;;;;;;;;;;18.50;65.20;;;;;;4246720;27;19939;-70
2021/10/29 08:14:14;;;;;;;;;;;18.50;65.10;;;;;;4252120;27;19919;-62
2021/10/29 08:16:17;;;;;;;;;;;18.50;65.10;;;;;;4246605;27;20375;-70
2021/10/29 08:18:21;;;;;;;;;;;18.50;65.20;;;;;;4228906;28;20302;-64
2021/10/29 08:20:23;;;;;;;;;;;18.50;65.20;;;;;;4261479;27;20324;-70
2021/10/29 08:22:26;;;;;;;;;;;18.60;65.30;;;;;;4263698;27;20049;-67
2021/10/29 08:24:29;;;;;;;;;;;18.50;65.20;;;;;;4258679;27;19972;-61
2021/10/29 08:26:32;;;;;;;;;;;18.50;65.20;;;;;;4255517;27;19919;-65
2021/10/29 08:28:36;;;;;;;;;;;18.60;65.20;;;;;;4263793;27;19919;-64
2021/10/29 08:30:38;;;;;;;;;;;18.50;65.10;;;;;;4250743;27;19972;-69
2021/10/29 08:32:42;;;;;;;;;;;18.50;65.20;;;;;;4263234;27;19943;-65
2021/10/29 08:34:45;;;;;;;;;;;18.50;65.20;;;;;;4258810;27;19919;-69
2021/10/29 08:36:48;;;;;;;;;;;18.50;65.20;;;;;;4254750;27;20331;-66
2021/10/29 08:38:50;;;;;;;;;;;18.50;65.30;;;;;;4263420;27;19919;-63
2021/10/29 08:41:03;;;;;;;;;;;18.50;65.50;;;;;;4250943;27;19965;-67
2021/10/29 08:43:06;;;;;;;;;;;18.50;65.40;;;;;;4263670;27;19919;-64
2021/10/29 08:45:10;;;;;;;;;;;18.50;65.30;;;;;;4258272;27;19919;-67
2021/10/29 08:47:14;;;;;;;;;;;18.50;65.40;;;;;;4258249;27;20042;-67
2021/10/29 08:49:17;;;;;;;;;;;18.50;65.40;;;;;;4266468;27;19979;-63
2021/10/29 08:51:20;;;;;;;;;;;18.50;65.40;;;;;;4253530;27;19919;-65
2021/10/29 08:53:23;;;;;;;;;;;18.50;65.30;;;;;;4267106;27;19922;-62
2021/10/29 08:55:27;;;;;;;;;;;18.50;65.40;;;;;;4262360;27;19919;-67
2021/10/29 08:57:30;;;;;;;;;;;18.50;65.20;;;;;;4258524;27;19923;-67
2021/10/29 08:59:34;;;;;;;;;;;18.60;65.20;;;;;;4268856;27;19915;-68
2021/10/29 09:01:49;;;;;;;;;;;18.60;65.30;;;;;;4265893;27;20095;-62
2021/10/29 09:04:00;;;;;;;;;;;18.60;65.50;;;;;;4255127;27;19960;-65
2021/10/29 09:08:42;;;;;;;;;;;18.60;65.40;;;;;;4254945;27;20386;-64
2021/10/29 09:32:19;;;;;;;;;;;18.70;66.90;;;;;;4260298;27;20295;-67
2021/10/29 09:34:24;;;;;;;;;;;18.70;67.20;;;;;;4251406;27;19919;-66
2021/10/29 09:36:28;;;;;;;;;;;18.70;66.70;;;;;;4250821;27;19972;-70
2021/10/29 09:38:31;;;;;;;;;;;18.70;67.90;;;;;;4259337;27;19920;-68
2021/10/29 09:40:35;;;;;;;;;;;18.70;68.70;;;;;;4230681;28;19977;-63
2021/10/29 09:42:42;;;;;;;;;;;18.80;69.10;;;;;;4237136;27;19931;-67
2021/10/29 09:44:46;;;;;;;;;;;18.80;69.00;;;;;;4262811;27;19923;-67
2021/10/29 09:49:03;;;;;;;;;;;19.00;67.90;;;;;;4254574;27;19944;-69
2021/10/29 09:51:13;;;;;;;;;;;19.10;67.90;;;;;;4265471;27;19942;-65
2021/10/29 09:53:38;;;;;;;;;;;19.10;67.30;;;;;;4253204;27;19919;-62
2021/10/29 09:58:02;;;;;;;;;;;19.20;67.60;;;;;;4255408;27;19919;-67
2021/10/29 10:00:07;;;;;;;;;;;19.20;66.70;;;;;;4252239;27;19919;-67
2021/10/29 10:02:13;;;;;;;;;;;19.30;66.60;;;;;;4249759;27;20553;-67
2021/10/29 10:04:17;;;;;;;;;;;19.30;67.90;;;;;;4259218;27;20415;-68
2021/10/29 10:06:22;;;;;;;;;;;19.30;67.50;;;;;;4264304;27;19919;-69
2021/10/29 10:08:26;;;;;;;;;;;19.30;67.40;;;;;;4260509;27;20422;-68
2021/10/29 10:10:29;;;;;;;;;;;19.40;67.40;;;;;;4251520;27;19972;-64
2021/10/29 10:12:33;;;;;;;;;;;19.40;67.70;;;;;;4249301;27;19919;-68
2021/10/29 10:14:37;;;;;;;;;;;19.40;67.90;;;;;;4259090;27;19919;-68
2021/10/29 10:16:40;;;;;;;;;;;19.40;67.80;;;;;;4258800;27;19919;-71
2021/10/29 10:18:43;;;;;;;;;;;19.50;68.00;;;;;;4256411;27;19945;-67
2021/10/29 10:20:46;;;;;;;;;;;19.50;68.10;;;;;;4250708;27;19923;-67
2021/10/29 10:22:51;;;;;;;;;;;19.50;68.10;;;;;;4245107;27;20361;-70
2021/10/29 10:25:07;;;;;;;;;;;19.60;68.30;;;;;;4235274;27;19920;-70
2021/10/29 10:27:35;;;;;;;;;;;19.60;68.00;;;;;;4265128;27;20557;-68
2021/10/29 10:44:17;;;;;;;;;;;20.10;68.00;;;;;;4262054;27;19983;-71
2021/10/29 10:46:20;;;;;;;;;;;20.10;68.40;;;;;;4251073;27;20459;-69
2021/10/29 10:48:27;;;;;;;;;;;20.20;68.20;;;;;;4247786;27;20352;-68
2021/10/29 10:50:34;;;;;;;;;;;20.30;67.90;;;;;;4259196;27;19919;-70
2021/10/29 10:52:57;;;;;;;;;;;20.30;68.00;;;;;;4238424;27;19919;-69
2021/10/29 10:55:15;;;;;;;;;;;20.30;67.80;;;;;;4259949;27;19919;-69
2021/10/29 11:04:18;;;;;;;;;;;20.60;71.20;;;;;;4247552;27;19926;-67
2021/10/29 11:06:41;;;;;;;;;;;20.70;70.80;;;;;;4258860;27;20260;-69
2021/10/29 11:11:14;;;;;;;;;;;20.90;70.60;;;;;;4252052;27;19920;-70
2021/10/29 11:13:17;;;;;;;;;;;20.90;71.10;;;;;;4260218;27;20344;-70
2021/10/29 11:15:22;;;;;;;;;;;21.00;70.30;;;;;;4252547;27;19919;-70
2021/10/29 11:17:38;;;;;;;;;;;21.10;70.30;;;;;;4255517;27;20061;-69
2021/10/29 11:19:51;;;;;;;;;;;21.20;69.80;;;;;;4250228;27;19933;-70
2021/10/29 11:22:00;;;;;;;;;;;21.30;70.20;;;;;;4245772;27;19926;-70
2021/10/29 11:24:06;;;;;;;;;;;21.40;69.40;;;;;;4247275;27;20371;-72
2021/10/29 11:26:20;;;;;;;;;;;21.40;69.50;;;;;;4255165;27;20003;-70
2021/10/29 11:28:30;;;;;;;;;;;21.50;69.30;;;;;;4258760;27;19923;-72
2021/10/29 11:30:39;;;;;;;;;;;21.60;68.50;;;;;;4252893;27;19954;-70
2021/10/29 11:32:50;;;;;;;;;;;21.70;68.30;;;;;;4262646;27;19942;-73
2021/10/29 11:34:57;;;;;;;;;;;21.80;67.90;;;;;;4260342;27;19945;-70
2021/10/29 11:37:03;;;;;;;;;;;21.90;67.80;;;;;;4253529;27;19919;-71
2021/10/29 11:39:08;;;;;;;;;;;22.00;67.50;;;;;;4246994;27;20375;-71
2021/10/29 11:41:11;;;;;;;;;;;22.10;67.40;;;;;;4251866;27;19919;-68
2021/10/29 11:43:19;;;;;;;;;;;22.10;67.10;;;;;;4252423;27;19919;-71
2021/10/29 11:45:31;;;;;;;;;;;22.20;67.50;;;;;;4246508;27;20018;-71
2021/10/29 11:47:37;;;;;;;;;;;22.20;67.10;;;;;;4257716;27;20011;-71
2021/10/29 11:49:43;;;;;;;;;;;22.30;67.00;;;;;;4226893;27;19972;-70
2021/10/29 11:51:48;;;;;;;;;;;22.40;66.80;;;;;;4253863;27;19925;-72
2021/10/29 11:53:57;;;;;;;;;;;22.40;66.80;;;;;;4249859;27;19928;-66
2021/10/29 11:56:09;;;;;;;;;;;22.50;67.30;;;;;;4247146;27;19930;-69
2021/10/29 12:00:31;;;;;;;;;;;22.60;66.70;;;;;;4262770;27;19926;-70
2021/10/29 12:07:22;;;;;;;;;;;22.70;67.30;;;;;;4254133;27;19927;-67
2021/10/29 12:09:27;;;;;;;;;;;22.80;67.70;;;;;;4254519;27;20026;-68
2021/10/29 12:11:31;;;;;;;;;;;22.80;67.70;;;;;;4259604;27;20431;-66
2021/10/29 12:13:35;;;;;;;;;;;22.90;67.20;;;;;;4258871;27;19923;-69
2021/10/29 12:15:39;;;;;;;;;;;23.00;67.30;;;;;;4245884;27;19945;-69
2021/10/29 12:17:55;;;;;;;;;;;23.10;67.30;;;;;;4249788;27;19924;-70
2021/10/29 12:20:07;;;;;;;;;;;23.20;67.70;;;;;;4234676;28;19923;-69
2021/10/29 12:22:29;;;;;;;;;;;23.20;68.30;;;;;;4250687;27;19923;-71
2021/10/29 12:24:34;;;;;;;;;;;23.30;68.50;;;;;;4240416;27;19923;-69
2021/10/29 12:26:39;;;;;;;;;;;23.40;67.80;;;;;;4264507;27;19925;-71
2021/10/29 12:28:43;;;;;;;;;;;23.40;67.50;;;;;;4263256;27;20321;-70
2021/10/29 13:01:56;;;;;;;;;;;24.10;64.70;;;;;;4208883;27;19967;-67
2021/10/29 13:04:01;;;;;;;;;;;24.20;65.60;;;;;;4268680;27;19914;-68
2021/10/29 13:06:06;;;;;;;;;;;24.20;64.90;;;;;;4260509;27;20145;-67
2021/10/29 13:08:18;;;;;;;;;;;24.30;65.40;;;;;;4265308;27;19922;-67
2021/10/29 13:10:21;;;;;;;;;;;24.30;65.40;;;;;;4240721;27;20520;-66
2021/10/29 13:12:29;;;;;;;;;;;24.40;65.20;;;;;;4246784;27;19980;-70
2021/10/29 13:14:37;;;;;;;;;;;24.40;64.50;;;;;;4236960;27;19927;-63
2021/10/29 13:16:40;;;;;;;;;;;24.60;65.30;;;;;;4251636;27;19972;-66
2021/10/29 13:18:53;;;;;;;;;;;24.60;64.90;;;;;;4251353;27;19947;-65
2021/10/29 13:21:36;;;;;;;;;;;24.60;65.10;;;;;;4232557;27;19924;-64
2021/10/29 13:51:29;;;;;;;;;;;24.50;63.70;;;;;;4255972;27;20367;-68
2021/10/29 13:55:28;;;;;;;;;;;24.50;63.30;;;;;;4252745;27;19964;-66
2021/10/29 14:28:17;;;;;;;;;;;25.00;63.10;;;;;;4247006;27;19980;-67
2021/10/29 14:32:30;;;;;;;;;;;25.10;63.00;;;;;;4251251;27;20363;-65
2021/10/29 14:34:40;;;;;;;;;;;25.10;62.90;;;;;;4258351;27;19968;-67
2021/10/29 14:39:15;;;;;;;;;;;25.10;63.60;;;;;;4258866;27;19919;-69
2021/10/29 14:41:35;;;;;;;;;;;25.10;63.40;;;;;;4262437;27;19975;-67
2021/10/29 14:43:45;;;;;;;;;;;25.10;63.30;;;;;;4250393;27;20428;-66
2021/10/29 14:46:00;;;;;;;;;;;25.20;64.00;;;;;;4246862;27;20360;-64
2021/10/29 14:53:03;;;;;;;;;;;25.20;64.70;;;;;;4253860;27;19967;-65
2021/10/29 15:06:59;;;;;;;;;;;25.40;64.40;;;;;;4263867;27;19971;-63
2021/10/29 15:27:50;;;;;;;;;;;25.50;64.30;;;;;;4263438;27;19919;-64
2021/10/29 15:30:06;;;;;;;;;;;25.60;64.50;;;;;;4234589;27;19919;-67
2021/10/29 15:41:39;;;;;;;;;;;25.60;64.30;;;;;;4248926;27;20276;-63
2021/10/29 15:43:53;;;;;;;;;;;25.70;64.20;;;;;;4247446;27;20420;-66
2021/10/29 15:46:04;;;;;;;;;;;25.80;64.00;;;;;;4251116;27;19919;-66
2021/10/29 15:48:18;;;;;;;;;;;25.80;63.50;;;;;;4262381;27;20301;-65
2021/10/29 15:50:21;;;;;;;;;;;25.80;63.40;;;;;;4250302;27;19971;-65
2021/10/29 15:52:24;;;;;;;;;;;25.80;63.50;;;;;;4263632;27;19968;-65
2021/10/29 15:54:30;;;;;;;;;;;25.80;63.40;;;;;;4257868;27;19927;-67
2021/10/29 15:56:58;;;;;;;;;;;25.80;63.40;;;;;;4255731;27;19944;-64
2021/10/29 15:59:16;;;;;;;;;;;25.80;63.40;;;;;;4261553;27;19945;-66
2021/10/29 16:02:15;;;;;;;;;;;25.70;63.30;;;;;;4251355;27;19927;-64
2021/10/29 16:17:50;;;;;;;;;;;25.40;63.80;;;;;;4260574;27;19919;-63
2021/10/29 16:19:54;;;;;;;;;;;25.40;63.80;;;;;;4261072;27;19915;-65
2021/10/29 16:21:58;;;;;;;;;;;25.40;63.90;;;;;;4253528;27;19937;-66
2021/10/29 16:24:01;;;;;;;;;;;25.30;63.90;;;;;;4272616;27;19914;-67
2021/10/29 16:26:11;;;;;;;;;;;25.20;63.90;;;;;;4255748;27;19920;-64
2021/10/29 16:28:15;;;;;;;;;;;25.10;64.20;;;;;;4260852;27;19919;-65
2021/10/29 16:30:17;;;;;;;;;;;25.10;64.50;;;;;;4259495;27;20373;-69
2021/10/29 16:32:39;;;;;;;;;;;24.90;64.60;;;;;;4253819;27;19919;-69
2021/10/29 16:34:41;;;;;;;;;;;24.90;64.70;;;;;;4266854;27;19919;-69
2021/10/29 16:36:46;;;;;;;;;;;24.80;64.70;;;;;;4261718;27;19915;-67